BNL400 HLLB-HEAX
Flight info
| Callsign | BNL400 |
|---|---|
| Flight time | 1h 14m |
| Altitude | 37000 |
| Route | MKILY1F MKILY A411 LOSUL M855 MMA P751 DASUM T10 ELODA DCT ALPAM |
| Aircraft | A321/M-SDE3FGHIRWY/LB1 |
Departure
| Time | 2026-05-05 14:40 |
|---|---|
| Airport | Benina International Airport (HLLB) |
Arrival
| Time | 2026-05-05 15:54 |
|---|---|
| Airport | Alexandria International Airport (HEAX) |
| Time | Latitude | Longitude | Altitude | Speed | Heading |
|---|---|---|---|---|---|
| 2026-05-05 14:23 | 32.08673 | 20.26746 | 414 ft | 0 kts | 210° |
| 2026-05-05 14:36 | 32.08665 | 20.26736 | 414 ft | 5 kts | 240° |
| 2026-05-05 14:36 | 32.08715 | 20.26699 | 414 ft | 11 kts | 30° |
| 2026-05-05 14:36 | 32.08738 | 20.26780 | 414 ft | 11 kts | 86° |
| 2026-05-05 14:36 | 32.08743 | 20.26882 | 414 ft | 13 kts | 86° |
| 2026-05-05 14:37 | 32.08751 | 20.27000 | 414 ft | 15 kts | 85° |
| 2026-05-05 14:37 | 32.08701 | 20.27106 | 411 ft | 16 kts | 156° |
| 2026-05-05 14:37 | 32.08601 | 20.27172 | 414 ft | 17 kts | 149° |
| 2026-05-05 14:37 | 32.08493 | 20.27246 | 415 ft | 19 kts | 150° |
| 2026-05-05 14:38 | 32.08374 | 20.27326 | 414 ft | 20 kts | 150° |
| 2026-05-05 14:38 | 32.08245 | 20.27412 | 412 ft | 22 kts | 150° |
| 2026-05-05 14:38 | 32.08137 | 20.27530 | 412 ft | 21 kts | 97° |
| 2026-05-05 14:38 | 32.08201 | 20.27690 | 410 ft | 22 kts | 47° |
| 2026-05-05 14:39 | 32.08338 | 20.27676 | 412 ft | 22 kts | 330° |
| 2026-05-05 14:39 | 32.08628 | 20.27479 | 414 ft | 86 kts | 330° |
| 2026-05-05 14:39 | 32.09358 | 20.26988 | 413 ft | 152 kts | 330° |
| 2026-05-05 14:39 | 32.10368 | 20.26312 | 825 ft | 167 kts | 332° |
| 2026-05-05 14:40 | 32.11359 | 20.25689 | 1712 ft | 160 kts | 335° |
| 2026-05-05 14:40 | 32.12365 | 20.25165 | 2398 ft | 165 kts | 338° |
| 2026-05-05 14:40 | 32.13568 | 20.24976 | 2798 ft | 189 kts | 9° |
| 2026-05-05 14:40 | 32.14809 | 20.25730 | 3152 ft | 213 kts | 45° |
| 2026-05-05 14:41 | 32.15433 | 20.27343 | 3536 ft | 230 kts | 85° |
| 2026-05-05 14:41 | 32.15027 | 20.29162 | 4140 ft | 234 kts | 117° |
| 2026-05-05 14:41 | 32.14220 | 20.30833 | 4834 ft | 235 kts | 121° |
| 2026-05-05 14:41 | 32.13354 | 20.32479 | 5498 ft | 237 kts | 122° |
| 2026-05-05 14:42 | 32.12657 | 20.34236 | 6114 ft | 240 kts | 103° |
| 2026-05-05 14:42 | 32.12439 | 20.36189 | 6735 ft | 241 kts | 95° |
| 2026-05-05 14:42 | 32.12273 | 20.38171 | 7359 ft | 243 kts | 95° |
| 2026-05-05 14:42 | 32.12118 | 20.40168 | 7966 ft | 246 kts | 94° |
| 2026-05-05 14:43 | 32.11966 | 20.42185 | 8549 ft | 248 kts | 94° |
| 2026-05-05 14:43 | 32.11810 | 20.44244 | 8796 ft | 262 kts | 94° |
| 2026-05-05 14:43 | 32.11638 | 20.46492 | 9060 ft | 285 kts | 94° |
| 2026-05-05 14:43 | 32.11456 | 20.48855 | 9756 ft | 292 kts | 94° |
| 2026-05-05 14:44 | 32.11267 | 20.51275 | 10398 ft | 304 kts | 94° |
| 2026-05-05 14:44 | 32.11065 | 20.53853 | 10657 ft | 327 kts | 94° |
| 2026-05-05 14:44 | 32.10847 | 20.56611 | 11002 ft | 346 kts | 94° |
| 2026-05-05 14:44 | 32.10622 | 20.59470 | 11653 ft | 353 kts | 94° |
| 2026-05-05 14:45 | 32.10392 | 20.62376 | 12362 ft | 358 kts | 94° |
| 2026-05-05 14:45 | 32.10157 | 20.65323 | 13067 ft | 363 kts | 94° |
| 2026-05-05 14:45 | 32.09917 | 20.68305 | 13763 ft | 367 kts | 94° |
| 2026-05-05 14:45 | 32.09672 | 20.71319 | 14457 ft | 372 kts | 94° |
| 2026-05-05 14:46 | 32.09426 | 20.74369 | 15146 ft | 375 kts | 94° |
| 2026-05-05 14:46 | 32.09197 | 20.77454 | 15818 ft | 379 kts | 94° |
| 2026-05-05 14:46 | 32.08996 | 20.80567 | 16473 ft | 383 kts | 93° |
| 2026-05-05 14:46 | 32.08806 | 20.83716 | 17113 ft | 387 kts | 92° |
| 2026-05-05 14:47 | 32.08617 | 20.86900 | 17734 ft | 391 kts | 93° |
| 2026-05-05 14:47 | 32.08424 | 20.90116 | 18333 ft | 395 kts | 93° |
| 2026-05-05 14:47 | 32.08224 | 20.93368 | 18931 ft | 400 kts | 93° |
| 2026-05-05 14:47 | 32.08016 | 20.96645 | 19531 ft | 403 kts | 93° |
| 2026-05-05 14:48 | 32.07798 | 20.99961 | 20103 ft | 407 kts | 93° |
| 2026-05-05 14:48 | 32.07573 | 21.03303 | 20687 ft | 411 kts | 93° |
| 2026-05-05 14:48 | 32.07345 | 21.06680 | 21250 ft | 415 kts | 93° |
| 2026-05-05 14:48 | 32.07117 | 21.10087 | 21797 ft | 419 kts | 93° |
| 2026-05-05 14:49 | 32.06886 | 21.13522 | 22328 ft | 423 kts | 93° |
| 2026-05-05 14:49 | 32.06651 | 21.16996 | 22843 ft | 426 kts | 93° |
| 2026-05-05 14:49 | 32.06418 | 21.20485 | 23330 ft | 430 kts | 93° |
| 2026-05-05 14:49 | 32.06183 | 21.24018 | 23800 ft | 433 kts | 93° |
| 2026-05-05 14:50 | 32.05944 | 21.27569 | 24265 ft | 436 kts | 93° |
| 2026-05-05 14:50 | 32.05701 | 21.31141 | 24720 ft | 439 kts | 93° |
| 2026-05-05 14:50 | 32.05454 | 21.34744 | 25157 ft | 442 kts | 94° |
| 2026-05-05 14:50 | 32.05206 | 21.38373 | 25594 ft | 445 kts | 94° |
| 2026-05-05 14:51 | 32.04957 | 21.42026 | 26015 ft | 448 kts | 93° |
| 2026-05-05 14:51 | 32.04708 | 21.45699 | 26427 ft | 451 kts | 94° |
| 2026-05-05 14:51 | 32.04453 | 21.49395 | 26835 ft | 454 kts | 94° |
| 2026-05-05 14:51 | 32.04192 | 21.53110 | 27236 ft | 457 kts | 94° |
| 2026-05-05 14:52 | 32.03929 | 21.56854 | 27628 ft | 459 kts | 94° |
| 2026-05-05 14:52 | 32.03664 | 21.60620 | 28017 ft | 462 kts | 94° |
| 2026-05-05 14:52 | 32.03398 | 21.64404 | 28381 ft | 464 kts | 94° |
| 2026-05-05 14:52 | 32.03131 | 21.68204 | 28741 ft | 467 kts | 94° |
| 2026-05-05 14:53 | 32.02860 | 21.72026 | 29093 ft | 470 kts | 94° |
| 2026-05-05 14:53 | 32.02583 | 21.75870 | 29432 ft | 472 kts | 94° |
| 2026-05-05 14:53 | 32.02302 | 21.79735 | 29765 ft | 474 kts | 94° |
| 2026-05-05 14:53 | 32.02022 | 21.83566 | 30085 ft | 477 kts | 94° |
| 2026-05-05 14:54 | 32.01736 | 21.87464 | 30423 ft | 479 kts | 94° |
| 2026-05-05 14:54 | 32.01451 | 21.91384 | 30765 ft | 481 kts | 94° |
| 2026-05-05 14:54 | 32.01162 | 21.95374 | 31094 ft | 484 kts | 94° |
| 2026-05-05 14:54 | 32.00880 | 21.99270 | 31486 ft | 483 kts | 94° |
| 2026-05-05 14:55 | 32.00590 | 22.03210 | 31939 ft | 482 kts | 94° |
| 2026-05-05 14:55 | 32.00296 | 22.07136 | 32384 ft | 481 kts | 94° |
| 2026-05-05 14:55 | 31.99999 | 22.11058 | 32813 ft | 480 kts | 94° |
| 2026-05-05 14:55 | 31.99704 | 22.14972 | 33233 ft | 479 kts | 94° |
| 2026-05-05 14:56 | 31.99410 | 22.18875 | 33652 ft | 478 kts | 94° |
| 2026-05-05 14:56 | 31.99120 | 22.22769 | 34051 ft | 477 kts | 94° |
| 2026-05-05 14:56 | 31.98827 | 22.26656 | 34445 ft | 476 kts | 94° |
| 2026-05-05 14:56 | 31.98532 | 22.30542 | 34815 ft | 476 kts | 94° |
| 2026-05-05 14:57 | 31.98238 | 22.34418 | 35183 ft | 475 kts | 94° |
| 2026-05-05 14:57 | 31.97947 | 22.38295 | 35537 ft | 475 kts | 94° |
| 2026-05-05 14:57 | 31.97659 | 22.42167 | 35879 ft | 475 kts | 94° |
| 2026-05-05 14:57 | 31.97370 | 22.46043 | 36224 ft | 475 kts | 94° |
| 2026-05-05 14:58 | 31.97079 | 22.49915 | 36532 ft | 475 kts | 94° |
| 2026-05-05 14:58 | 31.96781 | 22.53790 | 36832 ft | 475 kts | 94° |
| 2026-05-05 14:58 | 31.96478 | 22.57660 | 37013 ft | 474 kts | 94° |
| 2026-05-05 14:58 | 31.96176 | 22.61497 | 37050 ft | 468 kts | 94° |
| 2026-05-05 14:59 | 31.95585 | 22.69084 | 37052 ft | 464 kts | 94° |
| 2026-05-05 14:59 | 31.94995 | 22.76651 | 37055 ft | 464 kts | 94° |
| 2026-05-05 15:00 | 31.94498 | 22.82943 | 37054 ft | 464 kts | 94° |
| 2026-05-05 15:00 | 31.93785 | 22.91789 | 37051 ft | 465 kts | 95° |
| 2026-05-05 15:01 | 31.93170 | 22.99374 | 37061 ft | 466 kts | 95° |
| 2026-05-05 15:01 | 31.92558 | 23.06966 | 37069 ft | 466 kts | 95° |
| 2026-05-05 15:02 | 31.91940 | 23.14564 | 37073 ft | 467 kts | 95° |
| 2026-05-05 15:02 | 31.91309 | 23.22164 | 37078 ft | 467 kts | 95° |
| 2026-05-05 15:03 | 31.90677 | 23.29770 | 37083 ft | 467 kts | 95° |
| 2026-05-05 15:03 | 31.90037 | 23.37391 | 37088 ft | 468 kts | 95° |
| 2026-05-05 15:04 | 31.89389 | 23.45006 | 37093 ft | 468 kts | 95° |
| 2026-05-05 15:04 | 31.88753 | 23.52622 | 37090 ft | 468 kts | 95° |
| 2026-05-05 15:05 | 31.87795 | 23.64059 | 37102 ft | 468 kts | 95° |
| 2026-05-05 15:06 | 31.87128 | 23.71682 | 37101 ft | 468 kts | 95° |
| 2026-05-05 15:06 | 31.86458 | 23.79302 | 37105 ft | 469 kts | 95° |
| 2026-05-05 15:07 | 31.85790 | 23.86931 | 37105 ft | 469 kts | 95° |
| 2026-05-05 15:07 | 31.85086 | 23.94558 | 37111 ft | 469 kts | 97° |
| 2026-05-05 15:08 | 31.84103 | 24.02145 | 37112 ft | 470 kts | 99° |
| 2026-05-05 15:08 | 31.82979 | 24.09718 | 37120 ft | 470 kts | 99° |
| 2026-05-05 15:09 | 31.81885 | 24.17284 | 37123 ft | 470 kts | 98° |
| 2026-05-05 15:09 | 31.80846 | 24.24867 | 37138 ft | 470 kts | 98° |
| 2026-05-05 15:10 | 31.79816 | 24.32444 | 37153 ft | 470 kts | 98° |
| 2026-05-05 15:10 | 31.78763 | 24.40027 | 37162 ft | 470 kts | 98° |
| 2026-05-05 15:11 | 31.77707 | 24.47597 | 37174 ft | 469 kts | 98° |
| 2026-05-05 15:11 | 31.76658 | 24.55146 | 37168 ft | 468 kts | 98° |
| 2026-05-05 15:12 | 31.75602 | 24.62632 | 37161 ft | 468 kts | 98° |
| 2026-05-05 15:12 | 31.74533 | 24.70170 | 37166 ft | 468 kts | 98° |
| 2026-05-05 15:13 | 31.73465 | 24.77696 | 37174 ft | 467 kts | 99° |
| 2026-05-05 15:13 | 31.72386 | 24.85220 | 37168 ft | 467 kts | 99° |
| 2026-05-05 15:14 | 31.71305 | 24.92744 | 37172 ft | 467 kts | 99° |
| 2026-05-05 15:14 | 31.70225 | 25.00271 | 37169 ft | 467 kts | 99° |
| 2026-05-05 15:15 | 31.69144 | 25.07797 | 37173 ft | 468 kts | 99° |
| 2026-05-05 15:15 | 31.68055 | 25.15326 | 37167 ft | 468 kts | 98° |
| 2026-05-05 15:16 | 31.67246 | 25.21659 | 37172 ft | 468 kts | 97° |
| 2026-05-05 15:16 | 31.66384 | 25.29237 | 37176 ft | 468 kts | 97° |
| 2026-05-05 15:17 | 31.65510 | 25.36812 | 37177 ft | 469 kts | 97° |
| 2026-05-05 15:17 | 31.64589 | 25.44390 | 37184 ft | 469 kts | 97° |
| 2026-05-05 15:18 | 31.63643 | 25.51956 | 37181 ft | 469 kts | 97° |
| 2026-05-05 15:18 | 31.62705 | 25.59473 | 37181 ft | 469 kts | 97° |
| 2026-05-05 15:19 | 31.61766 | 25.67042 | 37175 ft | 468 kts | 97° |
| 2026-05-05 15:19 | 31.60828 | 25.74602 | 37177 ft | 468 kts | 97° |
| 2026-05-05 15:20 | 31.59884 | 25.82163 | 37183 ft | 469 kts | 97° |
| 2026-05-05 15:20 | 31.58933 | 25.89728 | 37183 ft | 469 kts | 98° |
| 2026-05-05 15:21 | 31.57971 | 25.97295 | 37189 ft | 470 kts | 98° |
| 2026-05-05 15:21 | 31.56685 | 26.04803 | 37194 ft | 470 kts | 103° |
| 2026-05-05 15:22 | 31.55149 | 26.12259 | 37194 ft | 470 kts | 103° |
| 2026-05-05 15:22 | 31.53615 | 26.19714 | 37198 ft | 471 kts | 103° |
| 2026-05-05 15:23 | 31.52075 | 26.27171 | 37203 ft | 470 kts | 103° |
| 2026-05-05 15:23 | 31.50532 | 26.34612 | 37199 ft | 470 kts | 103° |
| 2026-05-05 15:24 | 31.48980 | 26.42047 | 37198 ft | 470 kts | 103° |
| 2026-05-05 15:24 | 31.47423 | 26.49490 | 37198 ft | 470 kts | 103° |
| 2026-05-05 15:25 | 31.45867 | 26.56930 | 37197 ft | 471 kts | 104° |
| 2026-05-05 15:25 | 31.44297 | 26.64374 | 37204 ft | 470 kts | 104° |
| 2026-05-05 15:26 | 31.42732 | 26.71805 | 37207 ft | 471 kts | 104° |
| 2026-05-05 15:26 | 31.41168 | 26.79245 | 37206 ft | 471 kts | 104° |
| 2026-05-05 15:27 | 31.39587 | 26.86684 | 37207 ft | 471 kts | 104° |
| 2026-05-05 15:27 | 31.37999 | 26.94119 | 37208 ft | 471 kts | 104° |
| 2026-05-05 15:28 | 31.36411 | 27.01553 | 37207 ft | 471 kts | 104° |
| 2026-05-05 15:28 | 31.34820 | 27.08991 | 37209 ft | 471 kts | 104° |
| 2026-05-05 15:29 | 31.33221 | 27.16431 | 37210 ft | 472 kts | 104° |
| 2026-05-05 15:29 | 31.31012 | 27.23620 | 37207 ft | 470 kts | 120° |
| 2026-05-05 15:30 | 31.27460 | 27.30001 | 37213 ft | 469 kts | 126° |
| 2026-05-05 15:30 | 31.23807 | 27.36322 | 37177 ft | 470 kts | 126° |
| 2026-05-05 15:30 | 31.21993 | 27.39466 | 36465 ft | 477 kts | 126° |
| 2026-05-05 15:31 | 31.20101 | 27.42734 | 35550 ft | 483 kts | 126° |
| 2026-05-05 15:31 | 31.18230 | 27.45960 | 34689 ft | 488 kts | 126° |
| 2026-05-05 15:31 | 31.16340 | 27.49226 | 34327 ft | 483 kts | 124° |
| 2026-05-05 15:31 | 31.14844 | 27.52719 | 34056 ft | 482 kts | 109° |
| 2026-05-05 15:32 | 31.14054 | 27.56516 | 33808 ft | 482 kts | 101° |
| 2026-05-05 15:32 | 31.13435 | 27.60360 | 33560 ft | 482 kts | 100° |
| 2026-05-05 15:32 | 31.12829 | 27.64206 | 33307 ft | 483 kts | 100° |
| 2026-05-05 15:32 | 31.12269 | 27.67812 | 33076 ft | 482 kts | 100° |
| 2026-05-05 15:33 | 31.11665 | 27.71712 | 32821 ft | 481 kts | 100° |
| 2026-05-05 15:33 | 31.11066 | 27.75541 | 32572 ft | 479 kts | 100° |
| 2026-05-05 15:33 | 31.10464 | 27.79353 | 32317 ft | 477 kts | 100° |
| 2026-05-05 15:33 | 31.09859 | 27.83148 | 32069 ft | 475 kts | 101° |
| 2026-05-05 15:34 | 31.09250 | 27.86931 | 31818 ft | 473 kts | 101° |
| 2026-05-05 15:34 | 31.08643 | 27.90690 | 31566 ft | 471 kts | 101° |
| 2026-05-05 15:34 | 31.08040 | 27.94435 | 31214 ft | 468 kts | 101° |
| 2026-05-05 15:34 | 31.07443 | 27.98153 | 30623 ft | 466 kts | 100° |
| 2026-05-05 15:35 | 31.06849 | 28.01859 | 30057 ft | 463 kts | 100° |
| 2026-05-05 15:35 | 31.06260 | 28.05540 | 29478 ft | 461 kts | 100° |
| 2026-05-05 15:35 | 31.05672 | 28.09203 | 28909 ft | 458 kts | 100° |
| 2026-05-05 15:35 | 31.05084 | 28.12846 | 28345 ft | 455 kts | 101° |
| 2026-05-05 15:36 | 31.04498 | 28.16458 | 27788 ft | 452 kts | 101° |
| 2026-05-05 15:36 | 31.03922 | 28.20002 | 27246 ft | 449 kts | 101° |
| 2026-05-05 15:36 | 31.03333 | 28.23608 | 26703 ft | 446 kts | 101° |
| 2026-05-05 15:36 | 31.02754 | 28.27144 | 26183 ft | 442 kts | 101° |
| 2026-05-05 15:37 | 31.02180 | 28.30657 | 25663 ft | 439 kts | 101° |
| 2026-05-05 15:37 | 31.01611 | 28.34136 | 25162 ft | 436 kts | 101° |
| 2026-05-05 15:37 | 31.01047 | 28.37592 | 24671 ft | 433 kts | 101° |
| 2026-05-05 15:37 | 31.00484 | 28.41026 | 24186 ft | 430 kts | 101° |
| 2026-05-05 15:38 | 30.99924 | 28.44439 | 23706 ft | 428 kts | 101° |
| 2026-05-05 15:38 | 30.99371 | 28.47791 | 23227 ft | 425 kts | 101° |
| 2026-05-05 15:38 | 30.98802 | 28.51205 | 22733 ft | 423 kts | 101° |
| 2026-05-05 15:38 | 30.98251 | 28.54520 | 22253 ft | 421 kts | 101° |
| 2026-05-05 15:39 | 30.97699 | 28.57854 | 21750 ft | 418 kts | 101° |
| 2026-05-05 15:39 | 30.97151 | 28.61168 | 21246 ft | 415 kts | 101° |
| 2026-05-05 15:39 | 30.96605 | 28.64465 | 20730 ft | 413 kts | 101° |
| 2026-05-05 15:39 | 30.96062 | 28.67739 | 20212 ft | 411 kts | 101° |
| 2026-05-05 15:40 | 30.95523 | 28.70995 | 19687 ft | 408 kts | 101° |
| 2026-05-05 15:40 | 30.94984 | 28.74230 | 19159 ft | 405 kts | 101° |
| 2026-05-05 15:40 | 30.94449 | 28.77438 | 18634 ft | 402 kts | 101° |
| 2026-05-05 15:40 | 30.93916 | 28.80623 | 18107 ft | 399 kts | 101° |
| 2026-05-05 15:41 | 30.93385 | 28.83780 | 17586 ft | 396 kts | 101° |
| 2026-05-05 15:41 | 30.92856 | 28.86913 | 17061 ft | 392 kts | 101° |
| 2026-05-05 15:41 | 30.92331 | 28.90019 | 16545 ft | 389 kts | 101° |
| 2026-05-05 15:41 | 30.91813 | 28.93093 | 16024 ft | 386 kts | 101° |
| 2026-05-05 15:42 | 30.91301 | 28.96147 | 15510 ft | 382 kts | 101° |
| 2026-05-05 15:42 | 30.90794 | 28.99166 | 15001 ft | 378 kts | 101° |
| 2026-05-05 15:42 | 30.90290 | 29.02157 | 14494 ft | 374 kts | 101° |
| 2026-05-05 15:42 | 30.89789 | 29.05112 | 14006 ft | 370 kts | 101° |
| 2026-05-05 15:43 | 30.89291 | 29.08036 | 13500 ft | 366 kts | 101° |
| 2026-05-05 15:43 | 30.88794 | 29.10931 | 13007 ft | 362 kts | 101° |
| 2026-05-05 15:43 | 30.88304 | 29.13788 | 12528 ft | 358 kts | 101° |
| 2026-05-05 15:43 | 30.87820 | 29.16615 | 12043 ft | 354 kts | 101° |
| 2026-05-05 15:44 | 30.87339 | 29.19415 | 11567 ft | 350 kts | 101° |
| 2026-05-05 15:44 | 30.86866 | 29.22179 | 11100 ft | 346 kts | 101° |
| 2026-05-05 15:44 | 30.86399 | 29.24906 | 10639 ft | 342 kts | 101° |
| 2026-05-05 15:44 | 30.85940 | 29.27598 | 10346 ft | 333 kts | 101° |
| 2026-05-05 15:45 | 30.85495 | 29.30194 | 10218 ft | 320 kts | 101° |
| 2026-05-05 15:45 | 30.85067 | 29.32682 | 10085 ft | 308 kts | 100° |
| 2026-05-05 15:45 | 30.84648 | 29.35102 | 9800 ft | 302 kts | 101° |
| 2026-05-05 15:45 | 30.84234 | 29.37505 | 9380 ft | 301 kts | 100° |
| 2026-05-05 15:46 | 30.83828 | 29.39880 | 9041 ft | 298 kts | 100° |
| 2026-05-05 15:46 | 30.83425 | 29.42239 | 8656 ft | 297 kts | 100° |
| 2026-05-05 15:46 | 30.83021 | 29.44590 | 8290 ft | 295 kts | 100° |
| 2026-05-05 15:46 | 30.82617 | 29.46922 | 7928 ft | 293 kts | 101° |
| 2026-05-05 15:47 | 30.82214 | 29.49240 | 7550 ft | 292 kts | 101° |
| 2026-05-05 15:47 | 30.81946 | 29.50770 | 7306 ft | 291 kts | 101° |
| 2026-05-05 15:47 | 30.81409 | 29.53846 | 6822 ft | 289 kts | 100° |
| 2026-05-05 15:47 | 30.81013 | 29.56131 | 6452 ft | 287 kts | 100° |
| 2026-05-05 15:48 | 30.80619 | 29.58400 | 6090 ft | 284 kts | 100° |
| 2026-05-05 15:48 | 30.80232 | 29.60639 | 5524 ft | 282 kts | 100° |
| 2026-05-05 15:48 | 30.79846 | 29.62865 | 4955 ft | 280 kts | 100° |
| 2026-05-05 15:48 | 30.79461 | 29.65075 | 4385 ft | 278 kts | 100° |
| 2026-05-05 15:49 | 30.79085 | 29.67236 | 3809 ft | 276 kts | 100° |
| 2026-05-05 15:49 | 30.78704 | 29.69416 | 3235 ft | 274 kts | 100° |
| 2026-05-05 15:49 | 30.78326 | 29.71588 | 2677 ft | 272 kts | 98° |
| 2026-05-05 15:49 | 30.78389 | 29.73645 | 2520 ft | 240 kts | 71° |
| 2026-05-05 15:50 | 30.79117 | 29.75228 | 2421 ft | 208 kts | 47° |
| 2026-05-05 15:50 | 30.80176 | 29.76242 | 2314 ft | 185 kts | 27° |
| 2026-05-05 15:50 | 30.81271 | 29.76741 | 2200 ft | 161 kts | 10° |
| 2026-05-05 15:50 | 30.82342 | 29.76858 | 2095 ft | 150 kts | 355° |
| 2026-05-05 15:51 | 30.83323 | 29.76671 | 1888 ft | 138 kts | 341° |
| 2026-05-05 15:51 | 30.84189 | 29.76234 | 1716 ft | 134 kts | 328° |
| 2026-05-05 15:51 | 30.84944 | 29.75610 | 1537 ft | 133 kts | 322° |
| 2026-05-05 15:51 | 30.85679 | 29.74967 | 1367 ft | 132 kts | 322° |
| 2026-05-05 15:52 | 30.86412 | 29.74326 | 1194 ft | 132 kts | 322° |
| 2026-05-05 15:52 | 30.87143 | 29.73684 | 1019 ft | 131 kts | 322° |
| 2026-05-05 15:52 | 30.87869 | 29.73035 | 872 ft | 131 kts | 322° |
| 2026-05-05 15:52 | 30.88599 | 29.72390 | 731 ft | 132 kts | 323° |
| 2026-05-05 15:53 | 30.89333 | 29.71749 | 558 ft | 132 kts | 322° |
| 2026-05-05 15:53 | 30.90067 | 29.71113 | 362 ft | 132 kts | 322° |
| 2026-05-05 15:53 | 30.90794 | 29.70469 | 199 ft | 131 kts | 322° |
| 2026-05-05 15:53 | 30.91424 | 29.69918 | 190 ft | 91 kts | 323° |
| 2026-05-05 15:54 | 30.91795 | 29.69594 | 187 ft | 46 kts | 323° |
| 2026-05-05 15:54 | 30.92039 | 29.69380 | 187 ft | 42 kts | 323° |
| 2026-05-05 15:54 | 30.92187 | 29.69292 | 198 ft | 13 kts | 20° |
| 2026-05-05 15:54 | 30.92234 | 29.69358 | 188 ft | 11 kts | 54° |
| 2026-05-05 15:55 | 30.92286 | 29.69440 | 194 ft | 14 kts | 50° |
| 2026-05-05 15:55 | 30.92356 | 29.69541 | 194 ft | 18 kts | 53° |
| 2026-05-05 15:55 | 30.92437 | 29.69672 | 188 ft | 21 kts | 54° |
| 2026-05-05 15:55 | 30.92545 | 29.69747 | 183 ft | 20 kts | 340° |
| 2026-05-05 15:56 | 30.92643 | 29.69768 | 187 ft | 13 kts | 17° |
| 2026-05-05 15:56 | 30.92709 | 29.69819 | 193 ft | 6 kts | 54° |
| 2026-05-05 15:56 | 30.92711 | 29.69823 | 189 ft | 0 kts | 53° |